Disclaimer

Please do not use the information listed here in-flight or in-navigation, as they are not provided to us by the airports but are provided by volunteers, so they might be outdated.

Search


Regions


Airport information page

Radio informations:
BYDGOSZCZ TWR - 131.0 MHz
INFO - 128.5 MHz

Airport informations:
Latitude: 53° 05' 48.49" N
Longitude: 017° 58' 39.61" E
Elevation: 235 feet - 72 meters
Operating hours: Remarks
Operating agency: Military-civil joint use airport
Timezone: UTC+1(+2DT) - Last Sunday in March to last Sunday in October
Fuel: N/A

Runway information:
08/26 - 8202 x 197 feet< - >2500 x 60 meters

Recent METARs:
EPBY 192100Z 09014KT 9999 OVC022 04/M01 Q1027
EPBY 192130Z 09014KT 9999 BKN021 OVC024 04/M00 Q1027
EPBY 192200Z 09012KT 9999 OVC023 04/M01 Q1027

Airport on the map: